sensor_id;sensor_type;location;lat;lon;timestamp;P1;durP1;ratioP1;P2;durP2;ratioP2
52764;SDS011;38650;44.536;18.664;2022-09-12T00:00:48;1.90;;;1.48;;
52764;SDS011;38650;44.536;18.664;2022-09-12T00:03:15;1.90;;;1.50;;
52764;SDS011;38650;44.536;18.664;2022-09-12T00:05:41;2.70;;;1.42;;
52764;SDS011;38650;44.536;18.664;2022-09-12T00:08:08;1.40;;;1.05;;
52764;SDS011;38650;44.536;18.664;2022-09-12T00:10:38;1.10;;;1.00;;
52764;SDS011;38650;44.536;18.664;2022-09-12T00:13:06;2.40;;;0.90;;
52764;SDS011;38650;44.536;18.664;2022-09-12T00:15:44;1.50;;;1.25;;
52764;SDS011;38650;44.536;18.664;2022-09-12T00:18:12;0.95;;;0.85;;
52764;SDS011;38650;44.536;18.664;2022-09-12T00:20:43;1.17;;;1.02;;
52764;SDS011;38650;44.536;18.664;2022-09-12T00:23:09;1.45;;;1.00;;
52764;SDS011;38650;44.536;18.664;2022-09-12T00:25:46;1.40;;;1.00;;
52764;SDS011;38650;44.536;18.664;2022-09-12T00:28:15;1.98;;;1.20;;
52764;SDS011;38650;44.536;18.664;2022-09-12T00:30:42;1.20;;;1.10;;
52764;SDS011;38650;44.536;18.664;2022-09-12T00:33:10;1.52;;;1.13;;
52764;SDS011;38650;44.536;18.664;2022-09-12T00:35:40;1.75;;;1.30;;
52764;SDS011;38650;44.536;18.664;2022-09-12T00:38:11;2.67;;;0.82;;
52764;SDS011;38650;44.536;18.664;2022-09-12T00:40:38;0.70;;;0.70;;
52764;SDS011;38650;44.536;18.664;2022-09-12T00:43:04;0.70;;;0.70;;
52764;SDS011;38650;44.536;18.664;2022-09-12T00:45:34;1.40;;;0.90;;
52764;SDS011;38650;44.536;18.664;2022-09-12T00:48:01;2.28;;;0.80;;
52764;SDS011;38650;44.536;18.664;2022-09-12T00:50:38;1.92;;;1.00;;
52764;SDS011;38650;44.536;18.664;2022-09-12T00:53:04;2.50;;;0.75;;
52764;SDS011;38650;44.536;18.664;2022-09-12T00:55:36;2.90;;;1.30;;
52764;SDS011;38650;44.536;18.664;2022-09-12T01:00:36;1.98;;;1.00;;
52764;SDS011;38650;44.536;18.664;2022-09-12T01:03:10;1.20;;;1.08;;
52764;SDS011;38650;44.536;18.664;2022-09-12T01:09:13;1.55;;;0.90;;
52764;SDS011;38650;44.536;18.664;2022-09-12T01:11:42;1.40;;;1.17;;
52764;SDS011;38650;44.536;18.664;2022-09-12T01:14:11;1.95;;;1.35;;
52764;SDS011;38650;44.536;18.664;2022-09-12T01:16:38;1.40;;;1.30;;
52764;SDS011;38650;44.536;18.664;2022-09-12T01:27:18;1.60;;;1.33;;
52764;SDS011;38650;44.536;18.664;2022-09-12T01:32:51;1.90;;;1.52;;
52764;SDS011;38650;44.536;18.664;2022-09-12T01:38:35;1.52;;;1.40;;
52764;SDS011;38650;44.536;18.664;2022-09-12T01:46:32;2.13;;;1.60;;
52764;SDS011;38650;44.536;18.664;2022-09-12T01:49:22;3.45;;;1.77;;
52764;SDS011;38650;44.536;18.664;2022-09-12T01:52:24;2.92;;;1.60;;
52764;SDS011;38650;44.536;18.664;2022-09-12T01:55:12;2.65;;;1.52;;
52764;SDS011;38650;44.536;18.664;2022-09-12T01:57:53;1.42;;;1.00;;
52764;SDS011;38650;44.536;18.664;2022-09-12T02:00:21;1.20;;;1.10;;
52764;SDS011;38650;44.536;18.664;2022-09-12T02:03:31;3.13;;;1.33;;
52764;SDS011;38650;44.536;18.664;2022-09-12T02:05:49;1.80;;;1.25;;
52764;SDS011;38650;44.536;18.664;2022-09-12T02:08:38;1.58;;;1.10;;
52764;SDS011;38650;44.536;18.664;2022-09-12T02:11:17;2.17;;;1.50;;
52764;SDS011;38650;44.536;18.664;2022-09-12T02:14:08;1.10;;;1.00;;
52764;SDS011;38650;44.536;18.664;2022-09-12T02:16:59;1.63;;;1.10;;
52764;SDS011;38650;44.536;18.664;2022-09-12T02:19:42;2.78;;;0.98;;
52764;SDS011;38650;44.536;18.664;2022-09-12T02:22:32;2.67;;;0.80;;
52764;SDS011;38650;44.536;18.664;2022-09-12T02:25:23;1.42;;;0.90;;
52764;SDS011;38650;44.536;18.664;2022-09-12T02:28:02;1.77;;;1.00;;
52764;SDS011;38650;44.536;18.664;2022-09-12T02:30:49;1.75;;;0.80;;
52764;SDS011;38650;44.536;18.664;2022-09-12T02:33:53;1.65;;;0.98;;
52764;SDS011;38650;44.536;18.664;2022-09-12T02:39:01;0.77;;;0.77;;
52764;SDS011;38650;44.536;18.664;2022-09-12T02:41:28;0.85;;;0.75;;
52764;SDS011;38650;44.536;18.664;2022-09-12T02:43:54;2.47;;;0.90;;
52764;SDS011;38650;44.536;18.664;2022-09-12T02:46:35;1.38;;;1.00;;
52764;SDS011;38650;44.536;18.664;2022-09-12T02:49:14;0.85;;;0.85;;
52764;SDS011;38650;44.536;18.664;2022-09-12T02:52:22;2.60;;;1.50;;
52764;SDS011;38650;44.536;18.664;2022-09-12T02:54:48;2.90;;;1.20;;
52764;SDS011;38650;44.536;18.664;2022-09-12T02:57:16;1.52;;;1.00;;
52764;SDS011;38650;44.536;18.664;2022-09-12T02:59:44;2.15;;;1.35;;
52764;SDS011;38650;44.536;18.664;2022-09-12T03:05:56;1.02;;;0.80;;
52764;SDS011;38650;44.536;18.664;2022-09-12T03:23:44;0.73;;;0.70;;
52764;SDS011;38650;44.536;18.664;2022-09-12T03:26:28;1.35;;;0.88;;
52764;SDS011;38650;44.536;18.664;2022-09-12T03:29:08;1.85;;;1.35;;
52764;SDS011;38650;44.536;18.664;2022-09-12T03:31:36;1.83;;;1.20;;
52764;SDS011;38650;44.536;18.664;2022-09-12T03:34:04;1.67;;;1.13;;
52764;SDS011;38650;44.536;18.664;2022-09-12T03:36:30;1.48;;;1.38;;
52764;SDS011;38650;44.536;18.664;2022-09-12T03:38:58;1.83;;;1.27;;
52764;SDS011;38650;44.536;18.664;2022-09-12T03:41:34;2.88;;;1.92;;
52764;SDS011;38650;44.536;18.664;2022-09-12T03:44:20;2.95;;;1.60;;
52764;SDS011;38650;44.536;18.664;2022-09-12T03:46:57;1.38;;;1.27;;
52764;SDS011;38650;44.536;18.664;2022-09-12T03:49:28;1.73;;;1.20;;
52764;SDS011;38650;44.536;18.664;2022-09-12T03:51:53;2.63;;;1.92;;
52764;SDS011;38650;44.536;18.664;2022-09-12T03:54:20;2.17;;;1.95;;
52764;SDS011;38650;44.536;18.664;2022-09-12T03:56:45;2.92;;;2.10;;
52764;SDS011;38650;44.536;18.664;2022-09-12T03:59:11;3.00;;;1.67;;
52764;SDS011;38650;44.536;18.664;2022-09-12T04:01:37;1.70;;;1.25;;
52764;SDS011;38650;44.536;18.664;2022-09-12T04:04:08;2.22;;;1.60;;
52764;SDS011;38650;44.536;18.664;2022-09-12T04:06:34;2.53;;;1.65;;
52764;SDS011;38650;44.536;18.664;2022-09-12T04:09:00;1.33;;;1.23;;
52764;SDS011;38650;44.536;18.664;2022-09-12T04:11:25;2.28;;;1.67;;
52764;SDS011;38650;44.536;18.664;2022-09-12T04:13:51;3.28;;;1.60;;
52764;SDS011;38650;44.536;18.664;2022-09-12T04:16:17;2.38;;;1.73;;
52764;SDS011;38650;44.536;18.664;2022-09-12T04:18:43;4.25;;;1.80;;
52764;SDS011;38650;44.536;18.664;2022-09-12T04:21:11;3.28;;;1.70;;
52764;SDS011;38650;44.536;18.664;2022-09-12T04:23:41;1.63;;;1.30;;
52764;SDS011;38650;44.536;18.664;2022-09-12T04:26:08;3.08;;;1.60;;
52764;SDS011;38650;44.536;18.664;2022-09-12T04:28:34;1.40;;;1.30;;
52764;SDS011;38650;44.536;18.664;2022-09-12T04:31:03;1.50;;;1.40;;
52764;SDS011;38650;44.536;18.664;2022-09-12T04:33:34;2.75;;;1.40;;
52764;SDS011;38650;44.536;18.664;2022-09-12T04:36:04;2.13;;;1.67;;
52764;SDS011;38650;44.536;18.664;2022-09-12T04:38:59;8.65;;;2.40;;
52764;SDS011;38650;44.536;18.664;2022-09-12T04:42:04;2.72;;;2.05;;
52764;SDS011;38650;44.536;18.664;2022-09-12T04:44:30;2.10;;;1.88;;
52764;SDS011;38650;44.536;18.664;2022-09-12T04:46:56;3.45;;;2.95;;
52764;SDS011;38650;44.536;18.664;2022-09-12T04:49:27;3.35;;;1.92;;
52764;SDS011;38650;44.536;18.664;2022-09-12T04:51:52;2.45;;;2.08;;
52764;SDS011;38650;44.536;18.664;2022-09-12T04:54:21;1.92;;;1.75;;
52764;SDS011;38650;44.536;18.664;2022-09-12T04:56:47;2.15;;;1.88;;
52764;SDS011;38650;44.536;18.664;2022-09-12T04:59:14;2.42;;;1.70;;
52764;SDS011;38650;44.536;18.664;2022-09-12T05:01:41;2.35;;;1.98;;
52764;SDS011;38650;44.536;18.664;2022-09-12T05:04:08;1.70;;;1.60;;
52764;SDS011;38650;44.536;18.664;2022-09-12T05:06:35;1.75;;;1.60;;
52764;SDS011;38650;44.536;18.664;2022-09-12T05:09:03;2.55;;;2.05;;
52764;SDS011;38650;44.536;18.664;2022-09-12T05:11:31;4.80;;;3.10;;
52764;SDS011;38650;44.536;18.664;2022-09-12T05:13:58;4.25;;;2.95;;
52764;SDS011;38650;44.536;18.664;2022-09-12T05:16:25;4.00;;;2.42;;
52764;SDS011;38650;44.536;18.664;2022-09-12T05:18:52;3.35;;;2.20;;
52764;SDS011;38650;44.536;18.664;2022-09-12T05:21:20;2.53;;;1.77;;
52764;SDS011;38650;44.536;18.664;2022-09-12T05:23:49;1.92;;;1.60;;
52764;SDS011;38650;44.536;18.664;2022-09-12T05:26:16;1.85;;;1.75;;
52764;SDS011;38650;44.536;18.664;2022-09-12T05:28:44;7.40;;;3.80;;
52764;SDS011;38650;44.536;18.664;2022-09-12T05:33:38;4.10;;;2.90;;
52764;SDS011;38650;44.536;18.664;2022-09-12T05:36:06;3.05;;;2.75;;
52764;SDS011;38650;44.536;18.664;2022-09-12T05:38:34;2.50;;;2.20;;
52764;SDS011;38650;44.536;18.664;2022-09-12T05:41:04;3.35;;;2.50;;
52764;SDS011;38650;44.536;18.664;2022-09-12T05:43:36;2.45;;;2.05;;
52764;SDS011;38650;44.536;18.664;2022-09-12T05:46:04;2.53;;;2.17;;
52764;SDS011;38650;44.536;18.664;2022-09-12T05:48:34;2.38;;;1.90;;
52764;SDS011;38650;44.536;18.664;2022-09-12T05:51:02;2.83;;;2.22;;
52764;SDS011;38650;44.536;18.664;2022-09-12T05:53:30;2.58;;;2.38;;
52764;SDS011;38650;44.536;18.664;2022-09-12T05:56:03;2.95;;;2.70;;
52764;SDS011;38650;44.536;18.664;2022-09-12T05:58:33;2.33;;;2.13;;
52764;SDS011;38650;44.536;18.664;2022-09-12T06:01:00;2.72;;;2.47;;
52764;SDS011;38650;44.536;18.664;2022-09-12T06:03:46;1.90;;;1.80;;
52764;SDS011;38650;44.536;18.664;2022-09-12T06:06:14;1.48;;;1.38;;
52764;SDS011;38650;44.536;18.664;2022-09-12T06:08:41;1.77;;;1.67;;
52764;SDS011;38650;44.536;18.664;2022-09-12T06:11:10;2.13;;;1.48;;
52764;SDS011;38650;44.536;18.664;2022-09-12T06:13:39;1.77;;;1.55;;
52764;SDS011;38650;44.536;18.664;2022-09-12T06:18:33;3.15;;;2.45;;
52764;SDS011;38650;44.536;18.664;2022-09-12T06:21:10;3.70;;;3.00;;
52764;SDS011;38650;44.536;18.664;2022-09-12T06:23:37;7.28;;;5.32;;
52764;SDS011;38650;44.536;18.664;2022-09-12T06:26:04;5.68;;;4.07;;
52764;SDS011;38650;44.536;18.664;2022-09-12T06:28:31;5.90;;;5.30;;
52764;SDS011;38650;44.536;18.664;2022-09-12T06:31:02;6.05;;;4.50;;
52764;SDS011;38650;44.536;18.664;2022-09-12T06:33:30;6.05;;;3.92;;
52764;SDS011;38650;44.536;18.664;2022-09-12T06:36:01;5.20;;;4.03;;
52764;SDS011;38650;44.536;18.664;2022-09-12T06:38:28;7.18;;;4.43;;
52764;SDS011;38650;44.536;18.664;2022-09-12T06:40:55;4.90;;;3.58;;
52764;SDS011;38650;44.536;18.664;2022-09-12T06:43:21;4.03;;;3.20;;
52764;SDS011;38650;44.536;18.664;2022-09-12T06:45:47;4.53;;;3.33;;
52764;SDS011;38650;44.536;18.664;2022-09-12T06:48:13;10.52;;;4.25;;
52764;SDS011;38650;44.536;18.664;2022-09-12T06:50:39;5.22;;;3.35;;
52764;SDS011;38650;44.536;18.664;2022-09-12T06:53:05;3.20;;;2.90;;
52764;SDS011;38650;44.536;18.664;2022-09-12T06:55:31;4.20;;;2.85;;
52764;SDS011;38650;44.536;18.664;2022-09-12T06:57:58;7.57;;;4.20;;
52764;SDS011;38650;44.536;18.664;2022-09-12T07:00:24;2.83;;;2.53;;
52764;SDS011;38650;44.536;18.664;2022-09-12T07:02:54;3.67;;;2.60;;
52764;SDS011;38650;44.536;18.664;2022-09-12T07:05:20;3.70;;;2.70;;
52764;SDS011;38650;44.536;18.664;2022-09-12T07:07:46;5.72;;;4.40;;
52764;SDS011;38650;44.536;18.664;2022-09-12T07:10:13;5.10;;;4.20;;
52764;SDS011;38650;44.536;18.664;2022-09-12T07:12:38;5.00;;;4.40;;
52764;SDS011;38650;44.536;18.664;2022-09-12T07:15:04;6.07;;;5.15;;
52764;SDS011;38650;44.536;18.664;2022-09-12T07:17:30;7.50;;;5.70;;
52764;SDS011;38650;44.536;18.664;2022-09-12T07:19:56;8.75;;;6.15;;
52764;SDS011;38650;44.536;18.664;2022-09-12T07:22:22;5.55;;;5.05;;
52764;SDS011;38650;44.536;18.664;2022-09-12T07:24:48;6.13;;;4.13;;
52764;SDS011;38650;44.536;18.664;2022-09-12T07:27:15;3.65;;;3.28;;
52764;SDS011;38650;44.536;18.664;2022-09-12T07:29:40;2.75;;;2.55;;
52764;SDS011;38650;44.536;18.664;2022-09-12T07:32:06;1.45;;;1.20;;
52764;SDS011;38650;44.536;18.664;2022-09-12T07:34:33;1.10;;;1.00;;
52764;SDS011;38650;44.536;18.664;2022-09-12T07:36:59;0.82;;;0.82;;
52764;SDS011;38650;44.536;18.664;2022-09-12T07:39:25;1.08;;;0.90;;
52764;SDS011;38650;44.536;18.664;2022-09-12T07:41:50;0.80;;;0.80;;
52764;SDS011;38650;44.536;18.664;2022-09-12T07:44:16;0.60;;;0.60;;
52764;SDS011;38650;44.536;18.664;2022-09-12T07:46:42;0.60;;;0.60;;
52764;SDS011;38650;44.536;18.664;2022-09-12T07:49:07;0.70;;;0.60;;
52764;SDS011;38650;44.536;18.664;2022-09-12T07:51:36;0.77;;;0.73;;
52764;SDS011;38650;44.536;18.664;2022-09-12T07:54:05;1.40;;;0.75;;
52764;SDS011;38650;44.536;18.664;2022-09-12T07:56:33;2.58;;;0.70;;
52764;SDS011;38650;44.536;18.664;2022-09-12T07:58:59;1.60;;;0.77;;
52764;SDS011;38650;44.536;18.664;2022-09-12T08:01:25;0.88;;;0.80;;
52764;SDS011;38650;44.536;18.664;2022-09-12T08:03:57;0.60;;;0.60;;
52764;SDS011;38650;44.536;18.664;2022-09-12T08:06:24;0.75;;;0.75;;
52764;SDS011;38650;44.536;18.664;2022-09-12T08:08:52;0.85;;;0.77;;
52764;SDS011;38650;44.536;18.664;2022-09-12T08:11:20;0.68;;;0.63;;
52764;SDS011;38650;44.536;18.664;2022-09-12T08:13:47;0.95;;;0.90;;
52764;SDS011;38650;44.536;18.664;2022-09-12T08:16:18;1.10;;;1.00;;
52764;SDS011;38650;44.536;18.664;2022-09-12T08:18:47;1.25;;;1.15;;
52764;SDS011;38650;44.536;18.664;2022-09-12T08:21:15;0.70;;;0.70;;
52764;SDS011;38650;44.536;18.664;2022-09-12T08:23:45;1.45;;;0.80;;
52764;SDS011;38650;44.536;18.664;2022-09-12T08:26:12;0.73;;;0.73;;
52764;SDS011;38650;44.536;18.664;2022-09-12T08:28:38;1.15;;;0.90;;
52764;SDS011;38650;44.536;18.664;2022-09-12T08:31:09;2.33;;;0.82;;
52764;SDS011;38650;44.536;18.664;2022-09-12T08:33:36;0.75;;;0.75;;
52764;SDS011;38650;44.536;18.664;2022-09-12T08:36:07;1.25;;;1.10;;
52764;SDS011;38650;44.536;18.664;2022-09-12T08:38:43;1.10;;;1.00;;
52764;SDS011;38650;44.536;18.664;2022-09-12T08:41:13;1.48;;;1.10;;
52764;SDS011;38650;44.536;18.664;2022-09-12T08:49:31;2.13;;;1.60;;
52764;SDS011;38650;44.536;18.664;2022-09-12T08:52:02;1.25;;;1.15;;
52764;SDS011;38650;44.536;18.664;2022-09-12T08:54:55;1.77;;;1.50;;
52764;SDS011;38650;44.536;18.664;2022-09-12T08:57:21;1.05;;;1.05;;
52764;SDS011;38650;44.536;18.664;2022-09-12T08:59:48;1.83;;;1.52;;
52764;SDS011;38650;44.536;18.664;2022-09-12T09:02:31;1.20;;;1.00;;
52764;SDS011;38650;44.536;18.664;2022-09-12T09:05:21;2.05;;;1.60;;
52764;SDS011;38650;44.536;18.664;2022-09-12T09:10:39;1.88;;;1.52;;
52764;SDS011;38650;44.536;18.664;2022-09-12T09:16:28;1.55;;;1.45;;
52764;SDS011;38650;44.536;18.664;2022-09-12T09:18:59;1.55;;;1.45;;
52764;SDS011;38650;44.536;18.664;2022-09-12T09:21:29;1.70;;;1.40;;
52764;SDS011;38650;44.536;18.664;2022-09-12T09:24:06;1.70;;;1.52;;
52764;SDS011;38650;44.536;18.664;2022-09-12T09:29:26;1.70;;;1.60;;
52764;SDS011;38650;44.536;18.664;2022-09-12T09:32:02;2.33;;;1.75;;
52764;SDS011;38650;44.536;18.664;2022-09-12T09:34:34;1.63;;;1.48;;
52764;SDS011;38650;44.536;18.664;2022-09-12T09:37:10;1.30;;;1.20;;
52764;SDS011;38650;44.536;18.664;2022-09-12T09:44:53;3.65;;;1.63;;
52764;SDS011;38650;44.536;18.664;2022-09-12T09:47:21;1.75;;;1.40;;
52764;SDS011;38650;44.536;18.664;2022-09-12T09:49:47;2.45;;;1.50;;
52764;SDS011;38650;44.536;18.664;2022-09-12T09:52:14;1.88;;;1.40;;
52764;SDS011;38650;44.536;18.664;2022-09-12T09:54:44;2.15;;;1.48;;
52764;SDS011;38650;44.536;18.664;2022-09-12T09:59:58;1.40;;;1.30;;
52764;SDS011;38650;44.536;18.664;2022-09-12T10:05:27;1.45;;;1.35;;
52764;SDS011;38650;44.536;18.664;2022-09-12T10:07:53;1.60;;;1.50;;
52764;SDS011;38650;44.536;18.664;2022-09-12T10:10:19;1.30;;;1.20;;
52764;SDS011;38650;44.536;18.664;2022-09-12T10:12:48;1.40;;;1.05;;
52764;SDS011;38650;44.536;18.664;2022-09-12T10:15:20;1.40;;;1.13;;
52764;SDS011;38650;44.536;18.664;2022-09-12T10:17:50;1.02;;;0.90;;
52764;SDS011;38650;44.536;18.664;2022-09-12T10:22:59;1.38;;;0.98;;
52764;SDS011;38650;44.536;18.664;2022-09-12T10:25:27;1.10;;;1.00;;
52764;SDS011;38650;44.536;18.664;2022-09-12T10:27:55;1.33;;;0.90;;
52764;SDS011;38650;44.536;18.664;2022-09-12T10:30:23;0.88;;;0.88;;
52764;SDS011;38650;44.536;18.664;2022-09-12T10:32:52;1.00;;;0.90;;
52764;SDS011;38650;44.536;18.664;2022-09-12T10:40:22;1.25;;;0.93;;
52764;SDS011;38650;44.536;18.664;2022-09-12T10:42:51;1.13;;;0.82;;
52764;SDS011;38650;44.536;18.664;2022-09-12T10:47:51;0.98;;;0.90;;
52764;SDS011;38650;44.536;18.664;2022-09-12T10:50:28;0.70;;;0.70;;
52764;SDS011;38650;44.536;18.664;2022-09-12T10:55:56;0.65;;;0.63;;
52764;SDS011;38650;44.536;18.664;2022-09-12T11:03:48;0.70;;;0.70;;
52764;SDS011;38650;44.536;18.664;2022-09-12T11:06:41;1.13;;;1.00;;
52764;SDS011;38650;44.536;18.664;2022-09-12T11:17:48;0.80;;;0.80;;
52764;SDS011;38650;44.536;18.664;2022-09-12T11:23:38;0.60;;;0.60;;
52764;SDS011;38650;44.536;18.664;2022-09-12T11:28:47;0.80;;;0.80;;
52764;SDS011;38650;44.536;18.664;2022-09-12T11:34:08;1.80;;;0.98;;
52764;SDS011;38650;44.536;18.664;2022-09-12T11:39:16;2.80;;;1.20;;
52764;SDS011;38650;44.536;18.664;2022-09-12T11:41:51;2.03;;;1.13;;
52764;SDS011;38650;44.536;18.664;2022-09-12T11:44:33;1.25;;;0.90;;
52764;SDS011;38650;44.536;18.664;2022-09-12T11:47:04;1.33;;;1.02;;
52764;SDS011;38650;44.536;18.664;2022-09-12T11:49:35;1.75;;;0.93;;
52764;SDS011;38650;44.536;18.664;2022-09-12T11:52:03;1.05;;;0.93;;
52764;SDS011;38650;44.536;18.664;2022-09-12T11:57:44;0.90;;;0.68;;
52764;SDS011;38650;44.536;18.664;2022-09-12T12:00:56;0.80;;;0.80;;
52764;SDS011;38650;44.536;18.664;2022-09-12T12:06:00;0.60;;;0.60;;
52764;SDS011;38650;44.536;18.664;2022-09-12T12:08:39;0.70;;;0.70;;
52764;SDS011;38650;44.536;18.664;2022-09-12T12:11:07;0.60;;;0.60;;
52764;SDS011;38650;44.536;18.664;2022-09-12T12:13:38;0.68;;;0.55;;
52764;SDS011;38650;44.536;18.664;2022-09-12T12:18:57;0.90;;;0.70;;
52764;SDS011;38650;44.536;18.664;2022-09-12T12:21:47;0.73;;;0.60;;
52764;SDS011;38650;44.536;18.664;2022-09-12T12:24:16;0.80;;;0.80;;
52764;SDS011;38650;44.536;18.664;2022-09-12T12:34:32;0.60;;;0.60;;
52764;SDS011;38650;44.536;18.664;2022-09-12T12:36:58;1.65;;;0.70;;
52764;SDS011;38650;44.536;18.664;2022-09-12T12:45:02;0.82;;;0.60;;
52764;SDS011;38650;44.536;18.664;2022-09-12T12:50:07;0.70;;;0.70;;
52764;SDS011;38650;44.536;18.664;2022-09-12T12:52:47;0.73;;;0.63;;
52764;SDS011;38650;44.536;18.664;2022-09-12T12:55:24;1.23;;;0.60;;
52764;SDS011;38650;44.536;18.664;2022-09-12T12:57:53;0.50;;;0.50;;
52764;SDS011;38650;44.536;18.664;2022-09-12T13:03:35;1.25;;;0.70;;
52764;SDS011;38650;44.536;18.664;2022-09-12T13:05:47;1.60;;;0.80;;
52764;SDS011;38650;44.536;18.664;2022-09-12T13:10:55;0.60;;;0.60;;
52764;SDS011;38650;44.536;18.664;2022-09-12T13:13:33;0.82;;;0.60;;
52764;SDS011;38650;44.536;18.664;2022-09-12T13:16:00;0.85;;;0.70;;
52764;SDS011;38650;44.536;18.664;2022-09-12T13:18:47;0.75;;;0.60;;
52764;SDS011;38650;44.536;18.664;2022-09-12T13:21:17;0.80;;;0.80;;
52764;SDS011;38650;44.536;18.664;2022-09-12T13:23:44;0.90;;;0.70;;
52764;SDS011;38650;44.536;18.664;2022-09-12T13:26:23;0.73;;;0.60;;
52764;SDS011;38650;44.536;18.664;2022-09-12T13:28:50;0.70;;;0.70;;
52764;SDS011;38650;44.536;18.664;2022-09-12T13:31:34;0.50;;;0.50;;
52764;SDS011;38650;44.536;18.664;2022-09-12T13:34:00;0.50;;;0.50;;
52764;SDS011;38650;44.536;18.664;2022-09-12T13:36:41;1.52;;;0.60;;
52764;SDS011;38650;44.536;18.664;2022-09-12T13:39:27;0.70;;;0.70;;
52764;SDS011;38650;44.536;18.664;2022-09-12T13:44:49;0.77;;;0.70;;
52764;SDS011;38650;44.536;18.664;2022-09-12T13:47:39;0.60;;;0.60;;
52764;SDS011;38650;44.536;18.664;2022-09-12T13:50:20;0.60;;;0.50;;
52764;SDS011;38650;44.536;18.664;2022-09-12T13:52:52;0.60;;;0.60;;
52764;SDS011;38650;44.536;18.664;2022-09-12T13:55:30;2.90;;;0.68;;
52764;SDS011;38650;44.536;18.664;2022-09-12T13:57:59;0.80;;;0.70;;
52764;SDS011;38650;44.536;18.664;2022-09-12T14:00:28;0.85;;;0.80;;
52764;SDS011;38650;44.536;18.664;2022-09-12T14:02:56;1.13;;;0.80;;
52764;SDS011;38650;44.536;18.664;2022-09-12T14:05:41;0.60;;;0.60;;
52764;SDS011;38650;44.536;18.664;2022-09-12T14:08:10;0.65;;;0.60;;
52764;SDS011;38650;44.536;18.664;2022-09-12T14:10:41;0.50;;;0.40;;
52764;SDS011;38650;44.536;18.664;2022-09-12T14:13:16;0.82;;;0.50;;
52764;SDS011;38650;44.536;18.664;2022-09-12T14:15:51;0.80;;;0.70;;
52764;SDS011;38650;44.536;18.664;2022-09-12T14:18:26;0.93;;;0.70;;
52764;SDS011;38650;44.536;18.664;2022-09-12T14:20:54;1.02;;;0.70;;
52764;SDS011;38650;44.536;18.664;2022-09-12T14:23:26;0.82;;;0.60;;
52764;SDS011;38650;44.536;18.664;2022-09-12T14:25:54;1.00;;;0.70;;
52764;SDS011;38650;44.536;18.664;2022-09-12T14:28:22;0.50;;;0.50;;
52764;SDS011;38650;44.536;18.664;2022-09-12T14:33:30;1.52;;;0.73;;
52764;SDS011;38650;44.536;18.664;2022-09-12T14:36:09;1.02;;;0.70;;
52764;SDS011;38650;44.536;18.664;2022-09-12T14:38:56;0.90;;;0.60;;
52764;SDS011;38650;44.536;18.664;2022-09-12T14:41:29;1.58;;;0.73;;
52764;SDS011;38650;44.536;18.664;2022-09-12T14:43:58;0.80;;;0.80;;
52764;SDS011;38650;44.536;18.664;2022-09-12T14:46:26;0.95;;;0.70;;
52764;SDS011;38650;44.536;18.664;2022-09-12T14:51:36;1.67;;;0.70;;
52764;SDS011;38650;44.536;18.664;2022-09-12T14:54:03;0.70;;;0.70;;
52764;SDS011;38650;44.536;18.664;2022-09-12T14:56:39;1.05;;;0.88;;
52764;SDS011;38650;44.536;18.664;2022-09-12T15:04:49;1.17;;;0.60;;
52764;SDS011;38650;44.536;18.664;2022-09-12T15:07:37;0.47;;;0.47;;
52764;SDS011;38650;44.536;18.664;2022-09-12T15:10:18;0.60;;;0.60;;
52764;SDS011;38650;44.536;18.664;2022-09-12T15:12:49;0.50;;;0.50;;
52764;SDS011;38650;44.536;18.664;2022-09-12T15:15:27;0.60;;;0.60;;
52764;SDS011;38650;44.536;18.664;2022-09-12T15:17:52;0.82;;;0.73;;
52764;SDS011;38650;44.536;18.664;2022-09-12T15:20:18;0.60;;;0.60;;
52764;SDS011;38650;44.536;18.664;2022-09-12T15:22:44;0.57;;;0.57;;
52764;SDS011;38650;44.536;18.664;2022-09-12T15:25:09;0.60;;;0.60;;
52764;SDS011;38650;44.536;18.664;2022-09-12T15:27:37;0.70;;;0.47;;
52764;SDS011;38650;44.536;18.664;2022-09-12T15:30:09;0.60;;;0.60;;
52764;SDS011;38650;44.536;18.664;2022-09-12T15:32:37;0.63;;;0.63;;
52764;SDS011;38650;44.536;18.664;2022-09-12T15:35:25;0.40;;;0.40;;
52764;SDS011;38650;44.536;18.664;2022-09-12T15:37:52;1.58;;;0.60;;
52764;SDS011;38650;44.536;18.664;2022-09-12T15:40:17;0.50;;;0.50;;
52764;SDS011;38650;44.536;18.664;2022-09-12T15:42:43;0.90;;;0.60;;
52764;SDS011;38650;44.536;18.664;2022-09-12T15:47:43;0.65;;;0.60;;
52764;SDS011;38650;44.536;18.664;2022-09-12T15:50:09;0.68;;;0.68;;
52764;SDS011;38650;44.536;18.664;2022-09-12T15:52:35;0.70;;;0.70;;
52764;SDS011;38650;44.536;18.664;2022-09-12T15:55:01;0.80;;;0.80;;
52764;SDS011;38650;44.536;18.664;2022-09-12T15:57:27;1.10;;;1.00;;
52764;SDS011;38650;44.536;18.664;2022-09-12T15:59:53;0.57;;;0.57;;
52764;SDS011;38650;44.536;18.664;2022-09-12T16:02:19;1.23;;;0.60;;
52764;SDS011;38650;44.536;18.664;2022-09-12T16:04:44;1.17;;;0.73;;
52764;SDS011;38650;44.536;18.664;2022-09-12T16:07:12;0.80;;;0.80;;
52764;SDS011;38650;44.536;18.664;2022-09-12T16:09:38;0.80;;;0.80;;
52764;SDS011;38650;44.536;18.664;2022-09-12T16:12:04;0.90;;;0.80;;
52764;SDS011;38650;44.536;18.664;2022-09-12T16:14:30;0.88;;;0.70;;
52764;SDS011;38650;44.536;18.664;2022-09-12T16:16:56;1.08;;;0.70;;
52764;SDS011;38650;44.536;18.664;2022-09-12T16:19:22;0.90;;;0.90;;
52764;SDS011;38650;44.536;18.664;2022-09-12T16:21:48;1.10;;;0.80;;
52764;SDS011;38650;44.536;18.664;2022-09-12T16:24:14;1.20;;;1.00;;
52764;SDS011;38650;44.536;18.664;2022-09-12T16:26:40;1.02;;;0.80;;
52764;SDS011;38650;44.536;18.664;2022-09-12T16:29:05;1.25;;;0.80;;
52764;SDS011;38650;44.536;18.664;2022-09-12T16:31:32;0.80;;;0.80;;
52764;SDS011;38650;44.536;18.664;2022-09-12T16:33:58;1.35;;;1.25;;
52764;SDS011;38650;44.536;18.664;2022-09-12T16:36:24;1.67;;;1.58;;
52764;SDS011;38650;44.536;18.664;2022-09-12T16:38:50;1.73;;;1.63;;
52764;SDS011;38650;44.536;18.664;2022-09-12T16:41:19;1.70;;;1.60;;
52764;SDS011;38650;44.536;18.664;2022-09-12T16:43:46;4.97;;;1.70;;
52764;SDS011;38650;44.536;18.664;2022-09-12T16:46:13;2.20;;;1.40;;
52764;SDS011;38650;44.536;18.664;2022-09-12T16:48:41;1.38;;;1.15;;
52764;SDS011;38650;44.536;18.664;2022-09-12T16:51:09;2.75;;;1.65;;
52764;SDS011;38650;44.536;18.664;2022-09-12T16:53:35;2.70;;;2.50;;
52764;SDS011;38650;44.536;18.664;2022-09-12T16:56:03;2.92;;;2.63;;
52764;SDS011;38650;44.536;18.664;2022-09-12T16:58:33;2.28;;;2.03;;
52764;SDS011;38650;44.536;18.664;2022-09-12T17:01:01;2.78;;;1.80;;
52764;SDS011;38650;44.536;18.664;2022-09-12T17:03:53;1.83;;;1.70;;
52764;SDS011;38650;44.536;18.664;2022-09-12T17:06:20;2.05;;;1.23;;
52764;SDS011;38650;44.536;18.664;2022-09-12T17:08:48;2.00;;;1.60;;
52764;SDS011;38650;44.536;18.664;2022-09-12T17:11:16;2.10;;;1.77;;
52764;SDS011;38650;44.536;18.664;2022-09-12T17:13:51;4.30;;;1.92;;
52764;SDS011;38650;44.536;18.664;2022-09-12T17:16:18;3.20;;;1.30;;
52764;SDS011;38650;44.536;18.664;2022-09-12T17:18:45;1.73;;;1.60;;
52764;SDS011;38650;44.536;18.664;2022-09-12T17:21:11;2.72;;;1.80;;
52764;SDS011;38650;44.536;18.664;2022-09-12T17:23:38;3.55;;;1.50;;
52764;SDS011;38650;44.536;18.664;2022-09-12T17:26:04;2.28;;;1.33;;
52764;SDS011;38650;44.536;18.664;2022-09-12T17:28:30;1.85;;;1.40;;
52764;SDS011;38650;44.536;18.664;2022-09-12T17:30:57;3.15;;;1.88;;
52764;SDS011;38650;44.536;18.664;2022-09-12T17:33:26;1.75;;;1.50;;
52764;SDS011;38650;44.536;18.664;2022-09-12T17:35:53;3.10;;;1.55;;
52764;SDS011;38650;44.536;18.664;2022-09-12T17:38:19;3.13;;;1.63;;